sensor_id;sensor_type;location;lat;lon;timestamp;P1;durP1;ratioP1;P2;durP2;ratioP2
65279;SDS011;51878;55.748;48.742;2022-10-26T00:01:09;1.50;;;1.00;;
65279;SDS011;51878;55.748;48.742;2022-10-26T00:03:40;0.70;;;0.70;;
65279;SDS011;51878;55.748;48.742;2022-10-26T00:08:43;0.90;;;0.80;;
65279;SDS011;51878;55.748;48.742;2022-10-26T00:11:11;1.08;;;0.88;;
65279;SDS011;51878;55.748;48.742;2022-10-26T00:13:39;1.13;;;0.90;;
65279;SDS011;51878;55.748;48.742;2022-10-26T00:16:07;1.30;;;0.90;;
65279;SDS011;51878;55.748;48.742;2022-10-26T00:18:36;1.02;;;0.93;;
65279;SDS011;51878;55.748;48.742;2022-10-26T00:21:04;1.70;;;1.00;;
65279;SDS011;51878;55.748;48.742;2022-10-26T00:23:32;1.98;;;0.98;;
65279;SDS011;51878;55.748;48.742;2022-10-26T00:25:59;1.58;;;1.10;;
65279;SDS011;51878;55.748;48.742;2022-10-26T00:28:26;1.65;;;1.00;;
65279;SDS011;51878;55.748;48.742;2022-10-26T00:30:53;1.90;;;1.00;;
65279;SDS011;51878;55.748;48.742;2022-10-26T00:33:21;1.23;;;0.80;;
65279;SDS011;51878;55.748;48.742;2022-10-26T00:35:52;1.02;;;0.90;;
65279;SDS011;51878;55.748;48.742;2022-10-26T00:38:20;1.52;;;1.10;;
65279;SDS011;51878;55.748;48.742;2022-10-26T00:40:47;0.85;;;0.75;;
65279;SDS011;51878;55.748;48.742;2022-10-26T00:43:15;1.73;;;0.90;;
65279;SDS011;51878;55.748;48.742;2022-10-26T00:46:00;0.82;;;0.82;;
65279;SDS011;51878;55.748;48.742;2022-10-26T00:48:33;1.23;;;1.02;;
65279;SDS011;51878;55.748;48.742;2022-10-26T00:51:14;0.88;;;0.80;;
65279;SDS011;51878;55.748;48.742;2022-10-26T00:53:51;0.82;;;0.80;;
65279;SDS011;51878;55.748;48.742;2022-10-26T00:56:19;1.02;;;0.70;;
65279;SDS011;51878;55.748;48.742;2022-10-26T00:58:47;2.33;;;1.10;;
65279;SDS011;51878;55.748;48.742;2022-10-26T01:01:14;1.80;;;1.00;;
65279;SDS011;51878;55.748;48.742;2022-10-26T01:03:41;2.85;;;1.05;;
65279;SDS011;51878;55.748;48.742;2022-10-26T01:06:10;1.30;;;1.10;;
65279;SDS011;51878;55.748;48.742;2022-10-26T01:08:39;1.55;;;0.90;;
65279;SDS011;51878;55.748;48.742;2022-10-26T01:11:08;1.10;;;1.00;;
65279;SDS011;51878;55.748;48.742;2022-10-26T01:13:38;0.82;;;0.82;;
65279;SDS011;51878;55.748;48.742;2022-10-26T01:35:39;0.80;;;0.80;;
65279;SDS011;51878;55.748;48.742;2022-10-26T01:44:24;1.20;;;0.95;;
65279;SDS011;51878;55.748;48.742;2022-10-26T01:46:57;1.33;;;1.20;;
65279;SDS011;51878;55.748;48.742;2022-10-26T01:49:26;1.85;;;1.10;;
65279;SDS011;51878;55.748;48.742;2022-10-26T01:51:56;1.17;;;1.00;;
65279;SDS011;51878;55.748;48.742;2022-10-26T01:54:23;1.08;;;0.90;;
65279;SDS011;51878;55.748;48.742;2022-10-26T01:56:54;2.05;;;0.90;;
65279;SDS011;51878;55.748;48.742;2022-10-26T01:59:29;1.00;;;0.95;;
65279;SDS011;51878;55.748;48.742;2022-10-26T02:04:57;1.95;;;1.00;;
65279;SDS011;51878;55.748;48.742;2022-10-26T02:13:54;0.88;;;0.88;;
65279;SDS011;51878;55.748;48.742;2022-10-26T02:19:10;0.95;;;0.95;;
65279;SDS011;51878;55.748;48.742;2022-10-26T02:22:01;0.80;;;0.80;;
65279;SDS011;51878;55.748;48.742;2022-10-26T02:24:35;1.48;;;1.00;;
65279;SDS011;51878;55.748;48.742;2022-10-26T02:27:03;0.90;;;0.90;;
65279;SDS011;51878;55.748;48.742;2022-10-26T02:29:32;1.95;;;1.17;;
65279;SDS011;51878;55.748;48.742;2022-10-26T02:32:01;1.83;;;1.20;;
65279;SDS011;51878;55.748;48.742;2022-10-26T02:34:29;1.10;;;1.00;;
65279;SDS011;51878;55.748;48.742;2022-10-26T02:37:01;1.33;;;1.23;;
65279;SDS011;51878;55.748;48.742;2022-10-26T02:39:31;1.00;;;1.00;;
65279;SDS011;51878;55.748;48.742;2022-10-26T02:42:00;1.75;;;1.10;;
65279;SDS011;51878;55.748;48.742;2022-10-26T02:44:33;1.10;;;1.00;;
65279;SDS011;51878;55.748;48.742;2022-10-26T02:47:07;2.83;;;1.20;;
65279;SDS011;51878;55.748;48.742;2022-10-26T02:49:35;1.38;;;1.20;;
65279;SDS011;51878;55.748;48.742;2022-10-26T02:52:46;1.20;;;1.10;;
65279;SDS011;51878;55.748;48.742;2022-10-26T02:55:13;1.83;;;1.30;;
65279;SDS011;51878;55.748;48.742;2022-10-26T02:57:46;1.30;;;1.13;;
65279;SDS011;51878;55.748;48.742;2022-10-26T03:00:20;2.60;;;1.00;;
65279;SDS011;51878;55.748;48.742;2022-10-26T03:02:55;1.38;;;1.00;;
65279;SDS011;51878;55.748;48.742;2022-10-26T03:07:53;1.63;;;1.10;;
65279;SDS011;51878;55.748;48.742;2022-10-26T03:10:21;1.10;;;1.00;;
65279;SDS011;51878;55.748;48.742;2022-10-26T03:12:48;1.45;;;1.10;;
65279;SDS011;51878;55.748;48.742;2022-10-26T03:15:15;1.20;;;1.05;;
65279;SDS011;51878;55.748;48.742;2022-10-26T03:17:42;4.25;;;1.50;;
65279;SDS011;51878;55.748;48.742;2022-10-26T03:20:10;1.25;;;1.15;;
65279;SDS011;51878;55.748;48.742;2022-10-26T03:22:37;1.15;;;1.05;;
65279;SDS011;51878;55.748;48.742;2022-10-26T03:25:04;1.02;;;1.02;;
65279;SDS011;51878;55.748;48.742;2022-10-26T03:27:31;2.45;;;1.13;;
65279;SDS011;51878;55.748;48.742;2022-10-26T03:30:00;1.15;;;1.00;;
65279;SDS011;51878;55.748;48.742;2022-10-26T03:32:29;3.38;;;1.10;;
65279;SDS011;51878;55.748;48.742;2022-10-26T03:34:59;2.50;;;1.20;;
65279;SDS011;51878;55.748;48.742;2022-10-26T03:37:26;4.13;;;1.30;;
65279;SDS011;51878;55.748;48.742;2022-10-26T03:39:53;2.35;;;1.40;;
65279;SDS011;51878;55.748;48.742;2022-10-26T03:42:24;1.88;;;1.00;;
65279;SDS011;51878;55.748;48.742;2022-10-26T03:44:51;1.60;;;1.02;;
65279;SDS011;51878;55.748;48.742;2022-10-26T03:47:18;1.48;;;1.10;;
65279;SDS011;51878;55.748;48.742;2022-10-26T03:49:45;1.40;;;1.20;;
65279;SDS011;51878;55.748;48.742;2022-10-26T03:52:15;1.83;;;1.40;;
65279;SDS011;51878;55.748;48.742;2022-10-26T03:54:42;1.27;;;1.00;;
65279;SDS011;51878;55.748;48.742;2022-10-26T03:57:09;2.13;;;1.10;;
65279;SDS011;51878;55.748;48.742;2022-10-26T03:59:36;0.85;;;0.85;;
65279;SDS011;51878;55.748;48.742;2022-10-26T04:02:02;1.00;;;0.90;;
65279;SDS011;51878;55.748;48.742;2022-10-26T04:04:30;1.75;;;1.00;;
65279;SDS011;51878;55.748;48.742;2022-10-26T04:06:57;1.10;;;1.00;;
65279;SDS011;51878;55.748;48.742;2022-10-26T04:09:24;1.23;;;1.00;;
65279;SDS011;51878;55.748;48.742;2022-10-26T04:11:51;1.23;;;1.00;;
65279;SDS011;51878;55.748;48.742;2022-10-26T04:14:18;1.10;;;0.90;;
65279;SDS011;51878;55.748;48.742;2022-10-26T04:16:45;26.45;;;1.42;;
65279;SDS011;51878;55.748;48.742;2022-10-26T04:19:12;1.25;;;1.10;;
65279;SDS011;51878;55.748;48.742;2022-10-26T04:21:39;2.17;;;1.20;;
65279;SDS011;51878;55.748;48.742;2022-10-26T04:24:06;4.97;;;1.20;;
65279;SDS011;51878;55.748;48.742;2022-10-26T04:26:33;1.48;;;0.80;;
65279;SDS011;51878;55.748;48.742;2022-10-26T04:29:00;4.93;;;1.00;;
65279;SDS011;51878;55.748;48.742;2022-10-26T04:31:30;2.08;;;1.00;;
65279;SDS011;51878;55.748;48.742;2022-10-26T04:34:00;6.20;;;0.93;;
65279;SDS011;51878;55.748;48.742;2022-10-26T04:36:30;9.32;;;1.00;;
65279;SDS011;51878;55.748;48.742;2022-10-26T04:38:57;4.22;;;1.40;;
65279;SDS011;51878;55.748;48.742;2022-10-26T04:41:24;5.32;;;1.00;;
65279;SDS011;51878;55.748;48.742;2022-10-26T04:43:51;1.65;;;1.20;;
65279;SDS011;51878;55.748;48.742;2022-10-26T04:46:18;4.20;;;1.20;;
65279;SDS011;51878;55.748;48.742;2022-10-26T04:48:46;8.73;;;1.10;;
65279;SDS011;51878;55.748;48.742;2022-10-26T04:51:14;2.80;;;0.90;;
65279;SDS011;51878;55.748;48.742;2022-10-26T04:53:41;0.75;;;0.70;;
65279;SDS011;51878;55.748;48.742;2022-10-26T04:56:08;27.92;;;2.63;;
65279;SDS011;51878;55.748;48.742;2022-10-26T04:58:35;0.80;;;0.80;;
65279;SDS011;51878;55.748;48.742;2022-10-26T05:01:02;4.78;;;1.00;;
65279;SDS011;51878;55.748;48.742;2022-10-26T05:03:30;8.70;;;0.82;;
65279;SDS011;51878;55.748;48.742;2022-10-26T05:05:57;2.90;;;0.85;;
65279;SDS011;51878;55.748;48.742;2022-10-26T05:08:26;10.73;;;1.23;;
65279;SDS011;51878;55.748;48.742;2022-10-26T05:10:55;2.42;;;0.85;;
65279;SDS011;51878;55.748;48.742;2022-10-26T05:13:22;1.17;;;0.80;;
65279;SDS011;51878;55.748;48.742;2022-10-26T05:15:53;0.80;;;0.80;;
65279;SDS011;51878;55.748;48.742;2022-10-26T05:18:20;1.55;;;0.90;;
65279;SDS011;51878;55.748;48.742;2022-10-26T05:20:50;1.10;;;0.95;;
65279;SDS011;51878;55.748;48.742;2022-10-26T05:23:18;1.27;;;0.80;;
65279;SDS011;51878;55.748;48.742;2022-10-26T05:25:46;3.20;;;1.30;;
65279;SDS011;51878;55.748;48.742;2022-10-26T05:28:13;2.03;;;0.98;;
65279;SDS011;51878;55.748;48.742;2022-10-26T05:30:41;3.95;;;1.15;;
65279;SDS011;51878;55.748;48.742;2022-10-26T05:33:10;5.07;;;0.93;;
65279;SDS011;51878;55.748;48.742;2022-10-26T05:35:38;3.17;;;0.80;;
65279;SDS011;51878;55.748;48.742;2022-10-26T05:38:07;3.17;;;1.40;;
65279;SDS011;51878;55.748;48.742;2022-10-26T05:40:49;2.53;;;1.17;;
65279;SDS011;51878;55.748;48.742;2022-10-26T05:43:18;6.60;;;2.25;;
65279;SDS011;51878;55.748;48.742;2022-10-26T05:45:50;3.20;;;0.80;;
65279;SDS011;51878;55.748;48.742;2022-10-26T05:48:17;3.00;;;1.10;;
65279;SDS011;51878;55.748;48.742;2022-10-26T05:50:45;1.20;;;0.75;;
65279;SDS011;51878;55.748;48.742;2022-10-26T05:53:12;1.10;;;1.00;;
65279;SDS011;51878;55.748;48.742;2022-10-26T05:55:39;1.88;;;1.20;;
65279;SDS011;51878;55.748;48.742;2022-10-26T05:58:10;1.50;;;1.00;;
65279;SDS011;51878;55.748;48.742;2022-10-26T06:06:39;4.63;;;1.10;;
65279;SDS011;51878;55.748;48.742;2022-10-26T06:09:21;0.90;;;0.90;;
65279;SDS011;51878;55.748;48.742;2022-10-26T06:11:54;5.00;;;1.75;;
65279;SDS011;51878;55.748;48.742;2022-10-26T06:14:21;5.95;;;1.60;;
65279;SDS011;51878;55.748;48.742;2022-10-26T06:22:59;1.98;;;1.20;;
65279;SDS011;51878;55.748;48.742;2022-10-26T06:28:31;0.95;;;0.95;;
65279;SDS011;51878;55.748;48.742;2022-10-26T06:31:07;4.47;;;1.40;;
65279;SDS011;51878;55.748;48.742;2022-10-26T06:33:35;2.03;;;1.13;;
65279;SDS011;51878;55.748;48.742;2022-10-26T06:38:49;2.13;;;1.20;;
65279;SDS011;51878;55.748;48.742;2022-10-26T06:41:24;3.35;;;1.40;;
65279;SDS011;51878;55.748;48.742;2022-10-26T06:43:52;3.22;;;1.50;;
65279;SDS011;51878;55.748;48.742;2022-10-26T06:57:13;1.40;;;1.30;;
65279;SDS011;51878;55.748;48.742;2022-10-26T06:59:43;3.40;;;1.25;;
65279;SDS011;51878;55.748;48.742;2022-10-26T07:02:14;32.95;;;2.22;;
65279;SDS011;51878;55.748;48.742;2022-10-26T07:04:42;2.55;;;1.55;;
65279;SDS011;51878;55.748;48.742;2022-10-26T07:07:10;5.38;;;1.20;;
65279;SDS011;51878;55.748;48.742;2022-10-26T07:09:39;3.35;;;1.85;;
65279;SDS011;51878;55.748;48.742;2022-10-26T07:12:06;7.13;;;1.58;;
65279;SDS011;51878;55.748;48.742;2022-10-26T07:14:33;9.65;;;2.10;;
65279;SDS011;51878;55.748;48.742;2022-10-26T07:17:01;6.75;;;1.50;;
65279;SDS011;51878;55.748;48.742;2022-10-26T07:19:28;5.55;;;1.58;;
65279;SDS011;51878;55.748;48.742;2022-10-26T07:21:55;10.30;;;1.58;;
65279;SDS011;51878;55.748;48.742;2022-10-26T07:24:24;6.60;;;1.55;;
65279;SDS011;51878;55.748;48.742;2022-10-26T07:26:57;1.67;;;1.55;;
65279;SDS011;51878;55.748;48.742;2022-10-26T07:29:25;5.97;;;1.30;;
65279;SDS011;51878;55.748;48.742;2022-10-26T07:31:53;2.47;;;1.52;;
65279;SDS011;51878;55.748;48.742;2022-10-26T07:34:20;1.95;;;1.33;;
65279;SDS011;51878;55.748;48.742;2022-10-26T07:36:47;1.65;;;1.27;;
65279;SDS011;51878;55.748;48.742;2022-10-26T07:39:16;1.83;;;1.40;;
65279;SDS011;51878;55.748;48.742;2022-10-26T07:41:43;3.25;;;1.65;;
65279;SDS011;51878;55.748;48.742;2022-10-26T07:44:12;1.50;;;1.40;;
65279;SDS011;51878;55.748;48.742;2022-10-26T07:46:39;2.05;;;1.42;;
65279;SDS011;51878;55.748;48.742;2022-10-26T07:49:06;4.60;;;1.30;;
65279;SDS011;51878;55.748;48.742;2022-10-26T07:51:33;17.67;;;2.20;;
65279;SDS011;51878;55.748;48.742;2022-10-26T07:54:00;1.75;;;1.40;;
65279;SDS011;51878;55.748;48.742;2022-10-26T07:56:27;4.47;;;1.75;;
65279;SDS011;51878;55.748;48.742;2022-10-26T07:58:55;5.13;;;1.70;;
65279;SDS011;51878;55.748;48.742;2022-10-26T08:01:23;8.95;;;1.75;;
65279;SDS011;51878;55.748;48.742;2022-10-26T08:03:53;1.38;;;1.27;;
65279;SDS011;51878;55.748;48.742;2022-10-26T08:06:21;2.90;;;1.50;;
65279;SDS011;51878;55.748;48.742;2022-10-26T08:08:48;6.10;;;1.75;;
65279;SDS011;51878;55.748;48.742;2022-10-26T08:11:15;2.58;;;1.38;;
65279;SDS011;51878;55.748;48.742;2022-10-26T08:13:43;1.38;;;1.27;;
65279;SDS011;51878;55.748;48.742;2022-10-26T08:16:10;2.28;;;1.55;;
65279;SDS011;51878;55.748;48.742;2022-10-26T08:18:37;2.17;;;1.40;;
65279;SDS011;51878;55.748;48.742;2022-10-26T08:21:05;5.55;;;1.40;;
65279;SDS011;51878;55.748;48.742;2022-10-26T08:23:37;1.75;;;1.30;;
65279;SDS011;51878;55.748;48.742;2022-10-26T08:26:04;2.22;;;1.50;;
65279;SDS011;51878;55.748;48.742;2022-10-26T08:28:31;13.98;;;1.60;;
65279;SDS011;51878;55.748;48.742;2022-10-26T08:30:58;12.02;;;2.00;;
65279;SDS011;51878;55.748;48.742;2022-10-26T08:33:25;9.13;;;1.85;;
65279;SDS011;51878;55.748;48.742;2022-10-26T08:35:59;1.50;;;1.40;;
65279;SDS011;51878;55.748;48.742;2022-10-26T08:38:28;2.60;;;1.40;;
65279;SDS011;51878;55.748;48.742;2022-10-26T08:40:55;7.18;;;1.77;;
65279;SDS011;51878;55.748;48.742;2022-10-26T08:43:27;1.60;;;1.33;;
65279;SDS011;51878;55.748;48.742;2022-10-26T08:46:02;3.88;;;1.70;;
65279;SDS011;51878;55.748;48.742;2022-10-26T08:48:32;2.35;;;1.40;;
65279;SDS011;51878;55.748;48.742;2022-10-26T08:51:02;1.95;;;1.35;;
65279;SDS011;51878;55.748;48.742;2022-10-26T08:53:42;2.45;;;1.42;;
65279;SDS011;51878;55.748;48.742;2022-10-26T08:58:53;7.50;;;1.50;;
65279;SDS011;51878;55.748;48.742;2022-10-26T09:01:24;3.35;;;1.70;;
65279;SDS011;51878;55.748;48.742;2022-10-26T09:03:51;1.40;;;1.30;;
65279;SDS011;51878;55.748;48.742;2022-10-26T09:09:34;4.72;;;1.52;;
65279;SDS011;51878;55.748;48.742;2022-10-26T09:15:25;2.90;;;1.38;;
65279;SDS011;51878;55.748;48.742;2022-10-26T09:18:13;9.63;;;1.92;;
65279;SDS011;51878;55.748;48.742;2022-10-26T09:26:08;3.60;;;1.75;;
65279;SDS011;51878;55.748;48.742;2022-10-26T09:28:40;5.35;;;1.80;;
65279;SDS011;51878;55.748;48.742;2022-10-26T09:31:13;13.07;;;2.03;;
65279;SDS011;51878;55.748;48.742;2022-10-26T09:33:42;3.10;;;1.77;;
65279;SDS011;51878;55.748;48.742;2022-10-26T09:36:11;2.70;;;1.40;;
65279;SDS011;51878;55.748;48.742;2022-10-26T09:38:52;1.92;;;1.63;;
65279;SDS011;51878;55.748;48.742;2022-10-26T09:41:58;12.35;;;1.80;;
65279;SDS011;51878;55.748;48.742;2022-10-26T09:44:46;3.75;;;1.40;;
65279;SDS011;51878;55.748;48.742;2022-10-26T09:52:57;1.27;;;1.17;;
65279;SDS011;51878;55.748;48.742;2022-10-26T09:55:24;1.60;;;1.50;;
65279;SDS011;51878;55.748;48.742;2022-10-26T09:57:54;7.47;;;1.70;;
65279;SDS011;51878;55.748;48.742;2022-10-26T10:00:25;3.22;;;1.50;;
65279;SDS011;51878;55.748;48.742;2022-10-26T10:02:55;1.58;;;1.48;;
65279;SDS011;51878;55.748;48.742;2022-10-26T10:05:27;2.33;;;1.60;;
65279;SDS011;51878;55.748;48.742;2022-10-26T10:08:22;2.65;;;2.00;;
65279;SDS011;51878;55.748;48.742;2022-10-26T10:11:13;1.80;;;1.70;;
65279;SDS011;51878;55.748;48.742;2022-10-26T10:13:41;2.53;;;1.90;;
65279;SDS011;51878;55.748;48.742;2022-10-26T10:16:20;2.55;;;1.70;;
65279;SDS011;51878;55.748;48.742;2022-10-26T10:18:52;4.32;;;1.70;;
65279;SDS011;51878;55.748;48.742;2022-10-26T10:22:07;11.15;;;2.08;;
65279;SDS011;51878;55.748;48.742;2022-10-26T10:24:24;3.30;;;2.00;;
65279;SDS011;51878;55.748;48.742;2022-10-26T10:29:42;4.40;;;1.73;;
65279;SDS011;51878;55.748;48.742;2022-10-26T10:32:28;2.67;;;1.63;;
65279;SDS011;51878;55.748;48.742;2022-10-26T10:34:59;4.82;;;1.65;;
65279;SDS011;51878;55.748;48.742;2022-10-26T10:37:39;4.95;;;1.98;;
65279;SDS011;51878;55.748;48.742;2022-10-26T10:40:18;1.80;;;1.70;;
65279;SDS011;51878;55.748;48.742;2022-10-26T10:42:49;7.53;;;1.77;;
65279;SDS011;51878;55.748;48.742;2022-10-26T10:45:26;8.07;;;2.13;;
65279;SDS011;51878;55.748;48.742;2022-10-26T10:47:59;8.20;;;1.88;;
65279;SDS011;51878;55.748;48.742;2022-10-26T10:50:28;8.25;;;1.83;;
65279;SDS011;51878;55.748;48.742;2022-10-26T10:53:15;5.95;;;2.00;;
65279;SDS011;51878;55.748;48.742;2022-10-26T11:01:53;2.33;;;1.70;;
65279;SDS011;51878;55.748;48.742;2022-10-26T11:07:35;1.92;;;1.75;;
65279;SDS011;51878;55.748;48.742;2022-10-26T11:10:18;2.08;;;1.55;;
65279;SDS011;51878;55.748;48.742;2022-10-26T11:12:57;1.67;;;1.58;;
65279;SDS011;51878;55.748;48.742;2022-10-26T11:15:29;1.70;;;1.42;;
65279;SDS011;51878;55.748;48.742;2022-10-26T11:18:11;9.70;;;2.47;;
65279;SDS011;51878;55.748;48.742;2022-10-26T11:20:47;3.20;;;2.00;;
65279;SDS011;51878;55.748;48.742;2022-10-26T11:23:24;2.15;;;1.88;;
65279;SDS011;51878;55.748;48.742;2022-10-26T11:26:04;2.33;;;1.80;;
65279;SDS011;51878;55.748;48.742;2022-10-26T11:28:55;8.00;;;2.10;;
65279;SDS011;51878;55.748;48.742;2022-10-26T11:31:44;2.13;;;1.70;;
65279;SDS011;51878;55.748;48.742;2022-10-26T11:36:54;1.83;;;1.55;;
65279;SDS011;51878;55.748;48.742;2022-10-26T11:39:33;2.22;;;1.80;;
65279;SDS011;51878;55.748;48.742;2022-10-26T11:42:17;1.73;;;1.55;;
65279;SDS011;51878;55.748;48.742;2022-10-26T11:45:03;2.38;;;1.80;;
65279;SDS011;51878;55.748;48.742;2022-10-26T11:47:54;2.80;;;1.73;;
65279;SDS011;51878;55.748;48.742;2022-10-26T11:50:32;4.00;;;2.13;;
65279;SDS011;51878;55.748;48.742;2022-10-26T11:53:05;2.67;;;1.98;;
65279;SDS011;51878;55.748;48.742;2022-10-26T11:55:38;5.07;;;1.90;;
65279;SDS011;51878;55.748;48.742;2022-10-26T11:58:07;4.35;;;1.80;;
65279;SDS011;51878;55.748;48.742;2022-10-26T12:00:46;11.90;;;2.40;;
65279;SDS011;51878;55.748;48.742;2022-10-26T12:03:18;8.20;;;2.55;;
65279;SDS011;51878;55.748;48.742;2022-10-26T12:05:49;3.55;;;1.67;;
65279;SDS011;51878;55.748;48.742;2022-10-26T12:08:20;4.28;;;1.92;;
65279;SDS011;51878;55.748;48.742;2022-10-26T12:10:54;4.07;;;2.20;;
65279;SDS011;51878;55.748;48.742;2022-10-26T12:13:49;6.53;;;1.83;;
65279;SDS011;51878;55.748;48.742;2022-10-26T12:19:17;3.58;;;1.77;;
65279;SDS011;51878;55.748;48.742;2022-10-26T12:21:59;3.47;;;1.80;;
65279;SDS011;51878;55.748;48.742;2022-10-26T12:24:27;2.25;;;1.75;;
65279;SDS011;51878;55.748;48.742;2022-10-26T12:27:04;11.30;;;1.98;;
65279;SDS011;51878;55.748;48.742;2022-10-26T12:29:44;4.72;;;1.90;;
65279;SDS011;51878;55.748;48.742;2022-10-26T12:34:59;3.05;;;2.55;;
65279;SDS011;51878;55.748;48.742;2022-10-26T12:37:30;5.50;;;2.00;;
65279;SDS011;51878;55.748;48.742;2022-10-26T12:45:39;2.72;;;2.08;;
65279;SDS011;51878;55.748;48.742;2022-10-26T12:48:24;5.32;;;2.10;;
65279;SDS011;51878;55.748;48.742;2022-10-26T12:53:51;4.30;;;2.60;;
65279;SDS011;51878;55.748;48.742;2022-10-26T12:56:44;4.03;;;2.30;;
65279;SDS011;51878;55.748;48.742;2022-10-26T13:00:00;4.10;;;2.00;;
65279;SDS011;51878;55.748;48.742;2022-10-26T13:08:15;3.50;;;1.88;;
65279;SDS011;51878;55.748;48.742;2022-10-26T13:10:59;2.67;;;1.83;;
65279;SDS011;51878;55.748;48.742;2022-10-26T13:13:29;3.97;;;2.13;;
65279;SDS011;51878;55.748;48.742;2022-10-26T13:15:58;2.25;;;1.98;;
65279;SDS011;51878;55.748;48.742;2022-10-26T13:18:27;2.08;;;1.65;;
65279;SDS011;51878;55.748;48.742;2022-10-26T13:21:11;3.17;;;1.90;;
65279;SDS011;51878;55.748;48.742;2022-10-26T13:26:24;2.72;;;1.92;;
65279;SDS011;51878;55.748;48.742;2022-10-26T13:28:56;2.42;;;1.77;;
65279;SDS011;51878;55.748;48.742;2022-10-26T13:33:58;4.13;;;1.70;;
65279;SDS011;51878;55.748;48.742;2022-10-26T13:39:41;2.83;;;1.77;;
65279;SDS011;51878;55.748;48.742;2022-10-26T13:42:32;2.70;;;1.90;;
65279;SDS011;51878;55.748;48.742;2022-10-26T13:45:05;2.67;;;1.67;;
65279;SDS011;51878;55.748;48.742;2022-10-26T13:47:44;3.88;;;1.52;;
65279;SDS011;51878;55.748;48.742;2022-10-26T13:50:14;2.13;;;1.50;;
65279;SDS011;51878;55.748;48.742;2022-10-26T13:52:49;1.88;;;1.60;;
65279;SDS011;51878;55.748;48.742;2022-10-26T14:01:01;3.03;;;1.92;;
65279;SDS011;51878;55.748;48.742;2022-10-26T14:03:30;5.18;;;1.73;;
65279;SDS011;51878;55.748;48.742;2022-10-26T14:05:57;1.88;;;1.52;;
65279;SDS011;51878;55.748;48.742;2022-10-26T14:08:24;1.70;;;1.60;;
65279;SDS011;51878;55.748;48.742;2022-10-26T14:10:52;5.22;;;1.92;;
65279;SDS011;51878;55.748;48.742;2022-10-26T14:13:23;2.22;;;1.90;;
65279;SDS011;51878;55.748;48.742;2022-10-26T14:15:52;3.63;;;1.90;;
65279;SDS011;51878;55.748;48.742;2022-10-26T14:18:25;3.25;;;1.63;;
65279;SDS011;51878;55.748;48.742;2022-10-26T14:21:05;1.83;;;1.55;;
65279;SDS011;51878;55.748;48.742;2022-10-26T14:23:45;2.65;;;1.98;;
65279;SDS011;51878;55.748;48.742;2022-10-26T14:26:26;1.60;;;1.40;;
65279;SDS011;51878;55.748;48.742;2022-10-26T14:28:58;10.18;;;2.00;;
65279;SDS011;51878;55.748;48.742;2022-10-26T14:31:28;1.90;;;1.75;;
65279;SDS011;51878;55.748;48.742;2022-10-26T14:33:57;3.35;;;1.88;;
65279;SDS011;51878;55.748;48.742;2022-10-26T14:37:08;3.30;;;1.85;;
65279;SDS011;51878;55.748;48.742;2022-10-26T14:39:22;3.80;;;2.13;;
65279;SDS011;51878;55.748;48.742;2022-10-26T14:42:48;2.88;;;1.77;;
65279;SDS011;51878;55.748;48.742;2022-10-26T14:48:33;4.00;;;1.88;;
65279;SDS011;51878;55.748;48.742;2022-10-26T14:51:02;1.67;;;1.58;;
65279;SDS011;51878;55.748;48.742;2022-10-26T14:53:37;3.05;;;1.67;;
65279;SDS011;51878;55.748;48.742;2022-10-26T14:56:16;3.88;;;2.00;;
65279;SDS011;51878;55.748;48.742;2022-10-26T15:01:50;2.80;;;2.22;;
65279;SDS011;51878;55.748;48.742;2022-10-26T15:04:27;4.75;;;1.90;;
65279;SDS011;51878;55.748;48.742;2022-10-26T15:07:01;3.75;;;1.95;;
65279;SDS011;51878;55.748;48.742;2022-10-26T15:09:41;4.07;;;2.15;;
65279;SDS011;51878;55.748;48.742;2022-10-26T15:12:19;6.30;;;2.10;;
65279;SDS011;51878;55.748;48.742;2022-10-26T15:17:41;5.50;;;2.15;;
65279;SDS011;51878;55.748;48.742;2022-10-26T15:20:19;2.58;;;2.00;;
65279;SDS011;51878;55.748;48.742;2022-10-26T15:22:52;4.07;;;1.98;;
65279;SDS011;51878;55.748;48.742;2022-10-26T15:25:21;2.80;;;2.00;;
65279;SDS011;51878;55.748;48.742;2022-10-26T15:27:54;4.20;;;1.80;;
65279;SDS011;51878;55.748;48.742;2022-10-26T15:30:33;2.35;;;1.80;;
65279;SDS011;51878;55.748;48.742;2022-10-26T15:33:09;2.33;;;1.63;;
65279;SDS011;51878;55.748;48.742;2022-10-26T15:35:47;4.88;;;1.90;;
65279;SDS011;51878;55.748;48.742;2022-10-26T15:38:14;2.42;;;1.50;;
65279;SDS011;51878;55.748;48.742;2022-10-26T15:40:42;4.13;;;1.98;;
65279;SDS011;51878;55.748;48.742;2022-10-26T15:43:09;3.45;;;1.90;;
65279;SDS011;51878;55.748;48.742;2022-10-26T15:45:47;2.40;;;1.90;;
65279;SDS011;51878;55.748;48.742;2022-10-26T15:48:15;4.43;;;2.20;;
65279;SDS011;51878;55.748;48.742;2022-10-26T15:50:44;2.97;;;1.90;;
65279;SDS011;51878;55.748;48.742;2022-10-26T15:53:21;2.88;;;1.83;;
65279;SDS011;51878;55.748;48.742;2022-10-26T15:55:50;3.88;;;2.05;;
65279;SDS011;51878;55.748;48.742;2022-10-26T15:58:20;4.20;;;2.97;;
65279;SDS011;51878;55.748;48.742;2022-10-26T16:00:48;4.25;;;1.70;;
65279;SDS011;51878;55.748;48.742;2022-10-26T16:03:22;2.83;;;1.83;;
65279;SDS011;51878;55.748;48.742;2022-10-26T16:05:54;2.15;;;1.90;;
65279;SDS011;51878;55.748;48.742;2022-10-26T16:08:25;1.90;;;1.70;;
65279;SDS011;51878;55.748;48.742;2022-10-26T16:10:57;15.20;;;1.90;;
65279;SDS011;51878;55.748;48.742;2022-10-26T16:13:24;10.68;;;2.22;;
65279;SDS011;51878;55.748;48.742;2022-10-26T16:15:52;2.50;;;1.65;;
65279;SDS011;51878;55.748;48.742;2022-10-26T16:18:19;1.67;;;1.25;;
65279;SDS011;51878;55.748;48.742;2022-10-26T16:20:46;3.25;;;1.83;;
65279;SDS011;51878;55.748;48.742;2022-10-26T16:23:13;7.32;;;1.83;;
65279;SDS011;51878;55.748;48.742;2022-10-26T16:25:44;2.50;;;1.65;;
65279;SDS011;51878;55.748;48.742;2022-10-26T16:28:14;3.60;;;2.22;;
65279;SDS011;51878;55.748;48.742;2022-10-26T16:30:42;6.13;;;2.30;;
65279;SDS011;51878;55.748;48.742;2022-10-26T16:33:09;2.40;;;1.83;;
65279;SDS011;51878;55.748;48.742;2022-10-26T16:35:36;1.95;;;1.63;;
65279;SDS011;51878;55.748;48.742;2022-10-26T16:38:04;2.35;;;2.10;;
65279;SDS011;51878;55.748;48.742;2022-10-26T16:40:31;4.25;;;1.92;;
65279;SDS011;51878;55.748;48.742;2022-10-26T16:42:58;2.65;;;1.77;;
65279;SDS011;51878;55.748;48.742;2022-10-26T16:45:25;2.72;;;1.70;;
65279;SDS011;51878;55.748;48.742;2022-10-26T16:47:52;3.80;;;1.67;;
65279;SDS011;51878;55.748;48.742;2022-10-26T16:50:19;2.00;;;1.80;;
65279;SDS011;51878;55.748;48.742;2022-10-26T16:52:47;4.35;;;2.28;;
65279;SDS011;51878;55.748;48.742;2022-10-26T16:55:14;1.30;;;1.20;;
65279;SDS011;51878;55.748;48.742;2022-10-26T16:57:42;3.47;;;2.00;;
65279;SDS011;51878;55.748;48.742;2022-10-26T17:00:09;1.65;;;1.40;;
65279;SDS011;51878;55.748;48.742;2022-10-26T17:02:36;1.95;;;1.40;;
65279;SDS011;51878;55.748;48.742;2022-10-26T17:05:03;3.95;;;1.83;;
65279;SDS011;51878;55.748;48.742;2022-10-26T17:07:32;1.92;;;1.50;;
65279;SDS011;51878;55.748;48.742;2022-10-26T17:09:59;2.28;;;1.50;;
65279;SDS011;51878;55.748;48.742;2022-10-26T17:12:26;3.25;;;1.80;;
65279;SDS011;51878;55.748;48.742;2022-10-26T17:14:53;1.48;;;1.33;;
65279;SDS011;51878;55.748;48.742;2022-10-26T17:17:21;1.58;;;1.42;;
65279;SDS011;51878;55.748;48.742;2022-10-26T17:19:49;2.65;;;1.60;;
65279;SDS011;51878;55.748;48.742;2022-10-26T17:22:16;1.67;;;1.50;;
65279;SDS011;51878;55.748;48.742;2022-10-26T17:24:43;2.28;;;1.42;;
65279;SDS011;51878;55.748;48.742;2022-10-26T17:27:10;3.30;;;1.80;;
65279;SDS011;51878;55.748;48.742;2022-10-26T17:29:37;4.43;;;1.48;;